nws-alerts: Checking more than four warning/county codes can delay the loading of your pages. You should use a cron job to get the data.
EllijayWeather Station Historical Data
Daily Summary for April 22, 2019 Units:  English    Metric   Both
Daily Weekly Monthly Yearly Custom
  High: Low: Average:
Temperature: 78.3 °F 38.3 °F 57.8 °F
Dew Point: 51.6 °F 33.1 °F 43.3 °F
Humidity: 98% 22% 66%
Wind Speed: 4.0mph 0.0mph 0.2mph
Wind Gust: 7.0mph - -
Wind- - SSW
Pressure: 30.27 in 30.15 in -
Precipitation: 0.00 in    
Historical Graphs
 
 
Tabular Data for April 22, 2019
Time Temperature Dew Point Pressure Wind Wind Speed Wind Gust Humidity Rainfall Rate (Hourly) solar
00:04 44.4 °F 41.4 °F 30.22 in Calm     89% 0.00 in meteobridge W/m2
00:09 44.2 °F 41.2 °F 30.22 in Calm     89% 0.00 in meteobridge W/m2
00:14 44.1 °F 41.0 °F 30.22 in Calm     89% 0.00 in meteobridge W/m2
00:19 44.1 °F 41.4 °F 30.22 in Calm     90% 0.00 in meteobridge W/m2
00:24 44.1 °F 41.4 °F 30.23 in Calm     90% 0.00 in meteobridge W/m2
00:29 43.9 °F 41.2 °F 30.23 in Calm     90% 0.00 in meteobridge W/m2
00:34 43.7 °F 41.0 °F 30.23 in Calm     90% 0.00 in meteobridge W/m2
00:39 43.5 °F 40.8 °F 30.23 in Calm     90% 0.00 in meteobridge W/m2
00:44 43.3 °F 40.6 °F 30.23 in Calm     90% 0.00 in meteobridge W/m2
00:49 43.3 °F 40.8 °F 30.23 in Calm     91% 0.00 in meteobridge W/m2
00:54 43.2 °F 40.6 °F 30.22 in Calm     91% 0.00 in meteobridge W/m2
00:59 43.0 °F 40.8 °F 30.22 in Calm     92% 0.00 in meteobridge W/m2
01:04 43.0 °F 40.8 °F 30.22 in Calm     92% 0.00 in meteobridge W/m2
01:09 42.6 °F 40.5 °F 30.22 in Calm     92% 0.00 in meteobridge W/m2
01:14 42.6 °F 40.5 °F 30.22 in Calm     92% 0.00 in meteobridge W/m2
01:19 42.6 °F 40.5 °F 30.22 in Calm     92% 0.00 in meteobridge W/m2
01:24 42.4 °F 40.3 °F 30.22 in Calm     92% 0.00 in meteobridge W/m2
01:29 42.4 °F 40.3 °F 30.22 in Calm     92% 0.00 in meteobridge W/m2
01:34 42.3 °F 40.1 °F 30.22 in Calm     92% 0.00 in meteobridge W/m2
01:39 42.3 °F 40.1 °F 30.22 in Calm     92% 0.00 in meteobridge W/m2
01:44 42.1 °F 40.3 °F 30.22 in Calm     93% 0.00 in meteobridge W/m2
01:49 41.9 °F 40.1 °F 30.22 in Calm     93% 0.00 in meteobridge W/m2
01:54 41.9 °F 40.1 °F 30.22 in Calm     93% 0.00 in meteobridge W/m2
01:59 41.7 °F 39.9 °F 30.22 in Calm     93% 0.00 in meteobridge W/m2
02:04 41.7 °F 39.9 °F 30.22 in Calm     93% 0.00 in meteobridge W/m2
02:09 41.5 °F 39.7 °F 30.22 in Calm     93% 0.00 in meteobridge W/m2
02:14 41.5 °F 39.7 °F 30.21 in Calm     93% 0.00 in meteobridge W/m2
02:19 41.4 °F 39.6 °F 30.21 in Calm     93% 0.00 in meteobridge W/m2
02:24 41.4 °F 39.6 °F 30.21 in Calm     93% 0.00 in meteobridge W/m2
02:29 41.2 °F 39.6 °F 30.21 in Calm     94% 0.00 in meteobridge W/m2
02:34 41.2 °F 39.6 °F 30.21 in Calm     94% 0.00 in meteobridge W/m2
02:39 41.0 °F 39.4 °F 30.21 in Calm     94% 0.00 in meteobridge W/m2
02:44 40.8 °F 39.2 °F 30.21 in Calm     94% 0.00 in meteobridge W/m2
02:49 40.8 °F 39.2 °F 30.21 in Calm     94% 0.00 in meteobridge W/m2
02:54 40.8 °F 39.2 °F 30.21 in Calm     94% 0.00 in meteobridge W/m2
02:59 40.6 °F 39.0 °F 30.21 in Calm     94% 0.00 in meteobridge W/m2
03:04 40.6 °F 39.0 °F 30.21 in Calm     94% 0.00 in meteobridge W/m2
03:09 40.6 °F 39.0 °F 30.21 in Calm     94% 0.00 in meteobridge W/m2
03:14 40.5 °F 38.8 °F 30.21 in Calm     94% 0.00 in meteobridge W/m2
03:19 40.5 °F 38.8 °F 30.20 in Calm     94% 0.00 in meteobridge W/m2
03:24 40.3 °F 38.7 °F 30.20 in Calm     94% 0.00 in meteobridge W/m2
03:29 40.3 °F 38.7 °F 30.21 in Calm     94% 0.00 in meteobridge W/m2
03:34 40.3 °F 38.7 °F 30.20 in Calm     94% 0.00 in meteobridge W/m2
03:39 40.1 °F 38.5 °F 30.21 in Calm     94% 0.00 in meteobridge W/m2
03:44 39.9 °F 38.7 °F 30.20 in Calm     95% 0.00 in meteobridge W/m2
03:49 39.9 °F 38.7 °F 30.20 in Calm     95% 0.00 in meteobridge W/m2
03:54 39.9 °F 38.7 °F 30.21 in Calm     95% 0.00 in meteobridge W/m2
03:59 39.9 °F 38.7 °F 30.21 in Calm     95% 0.00 in meteobridge W/m2
04:04 39.7 °F 38.5 °F 30.21 in Calm     95% 0.00 in meteobridge W/m2
04:09 39.7 °F 38.5 °F 30.21 in Calm     95% 0.00 in meteobridge W/m2
04:14 39.7 °F 38.5 °F 30.21 in Calm     95% 0.00 in meteobridge W/m2
04:19 39.7 °F 38.5 °F 30.21 in Calm     95% 0.00 in meteobridge W/m2
04:24 39.6 °F 38.3 °F 30.21 in Calm     95% 0.00 in meteobridge W/m2
04:29 39.6 °F 38.3 °F 30.21 in Calm     95% 0.00 in meteobridge W/m2
04:34 39.6 °F 38.3 °F 30.21 in Calm     95% 0.00 in meteobridge W/m2
04:39 39.4 °F 38.1 °F 30.21 in Calm     95% 0.00 in meteobridge W/m2
04:44 39.4 °F 38.1 °F 30.22 in Calm     95% 0.00 in meteobridge W/m2
04:49 39.4 °F 38.1 °F 30.21 in Calm     95% 0.00 in meteobridge W/m2
04:54 39.2 °F 37.9 °F 30.22 in Calm     95% 0.00 in meteobridge W/m2
04:59 39.2 °F 37.9 °F 30.22 in Calm     95% 0.00 in meteobridge W/m2
05:04 39.2 °F 37.9 °F 30.22 in Calm     95% 0.00 in meteobridge W/m2
05:09 39.2 °F 37.9 °F 30.22 in Calm     95% 0.00 in meteobridge W/m2
05:14 39.2 °F 38.1 °F 30.22 in Calm     96% 0.00 in meteobridge W/m2
05:19 39.2 °F 38.1 °F 30.22 in Calm     96% 0.00 in meteobridge W/m2
05:24 39.2 °F 38.1 °F 30.22 in Calm     96% 0.00 in meteobridge W/m2
05:29 39.2 °F 38.1 °F 30.22 in Calm     96% 0.00 in meteobridge W/m2
05:34 39.2 °F 38.1 °F 30.22 in Calm     96% 0.00 in meteobridge W/m2
05:39 39.0 °F 37.9 °F 30.22 in Calm     96% 0.00 in meteobridge W/m2
05:44 39.0 °F 37.9 °F 30.23 in Calm     96% 0.00 in meteobridge W/m2
05:49 38.8 °F 37.6 °F 30.23 in Calm     95% 0.00 in meteobridge W/m2
05:54 38.8 °F 37.6 °F 30.23 in Calm     95% 0.00 in meteobridge W/m2
05:59 38.8 °F 37.6 °F 30.23 in Calm     95% 0.00 in meteobridge W/m2
06:04 38.7 °F 37.4 °F 30.23 in Calm     95% 0.00 in meteobridge W/m2
06:09 38.7 °F 37.4 °F 30.23 in Calm     95% 0.00 in meteobridge W/m2
06:14 38.7 °F 37.4 °F 30.23 in Calm     95% 0.00 in meteobridge W/m2
06:19 38.5 °F 37.2 °F 30.23 in Calm     95% 0.00 in meteobridge W/m2
06:24 38.5 °F 37.2 °F 30.23 in Calm     95% 0.00 in meteobridge W/m2
06:29 38.3 °F 37.0 °F 30.23 in Calm     95% 0.00 in meteobridge W/m2
06:34 38.5 °F 37.4 °F 30.23 in Calm     96% 0.00 in meteobridge W/m2
06:39 38.3 °F 37.2 °F 30.23 in Calm     96% 0.00 in meteobridge W/m2
06:44 38.3 °F 37.2 °F 30.24 in Calm     96% 0.00 in meteobridge W/m2
06:49 38.5 °F 37.4 °F 30.24 in Calm     96% 0.00 in meteobridge W/m2
06:54 38.3 °F 37.2 °F 30.24 in Calm     96% 0.00 in meteobridge W/m2
06:59 38.5 °F 37.4 °F 30.24 in Calm     96% 0.00 in meteobridge W/m2
07:04 38.5 °F 37.4 °F 30.24 in Calm     96% 0.00 in meteobridge W/m2
07:09 38.5 °F 37.4 °F 30.24 in Calm     96% 0.00 in meteobridge W/m2
07:14 38.5 °F 37.4 °F 30.24 in Calm     96% 0.00 in meteobridge W/m2
07:19 38.5 °F 37.4 °F 30.24 in Calm     96% 0.00 in meteobridge W/m2
07:24 38.5 °F 37.4 °F 30.25 in Calm     96% 0.00 in meteobridge W/m2
07:29 38.5 °F 37.4 °F 30.25 in Calm     96% 0.00 in meteobridge W/m2
07:34 38.5 °F 37.4 °F 30.25 in Calm     96% 0.00 in meteobridge W/m2
07:39 38.7 °F 37.9 °F 30.26 in Calm     97% 0.00 in meteobridge W/m2
07:44 38.7 °F 37.9 °F 30.26 in Calm     97% 0.00 in meteobridge W/m2
07:49 38.8 °F 38.1 °F 30.26 in Calm     97% 0.00 in meteobridge W/m2
07:54 39.0 °F 38.3 °F 30.26 in Calm     97% 0.00 in meteobridge W/m2
07:59 39.4 °F 38.7 °F 30.27 in Calm     97% 0.00 in meteobridge W/m2
08:04 39.6 °F 38.8 °F 30.27 in Calm     97% 0.00 in meteobridge W/m2
08:09 39.7 °F 39.0 °F 30.27 in Calm     97% 0.00 in meteobridge W/m2
08:14 40.1 °F 39.4 °F 30.27 in Calm     97% 0.00 in meteobridge W/m2
08:19 40.5 °F 39.7 °F 30.27 in Calm     97% 0.00 in meteobridge W/m2
08:24 40.6 °F 40.1 °F 30.27 in Calm     98% 0.00 in meteobridge W/m2
08:29 41.2 °F 40.6 °F 30.27 in Calm     98% 0.00 in meteobridge W/m2
08:34 41.7 °F 41.2 °F 30.27 in Calm     98% 0.00 in meteobridge W/m2
08:39 42.1 °F 41.5 °F 30.27 in Calm     98% 0.00 in meteobridge W/m2
08:44 42.4 °F 41.9 °F 30.27 in Calm     98% 0.00 in meteobridge W/m2
08:49 43.0 °F 42.4 °F 30.27 in Calm     98% 0.00 in meteobridge W/m2
08:54 43.5 °F 43.0 °F 30.27 in Calm     98% 0.00 in meteobridge W/m2
08:59 44.1 °F 43.5 °F 30.27 in Calm     98% 0.00 in meteobridge W/m2
09:04 44.8 °F 44.2 °F 30.27 in Calm     98% 0.00 in meteobridge W/m2
09:09 45.3 °F 44.8 °F 30.27 in Calm     98% 0.00 in meteobridge W/m2
09:14 46.0 °F 45.0 °F 30.27 in Calm     96% 0.00 in meteobridge W/m2
09:19 46.6 °F 45.1 °F 30.27 in Calm     95% 0.00 in meteobridge W/m2
09:24 47.3 °F 45.3 °F 30.27 in Calm     93% 0.00 in meteobridge W/m2
09:29 48.4 °F 46.2 °F 30.27 in Calm     92% 0.00 in meteobridge W/m2
09:34 48.9 °F 46.0 °F 30.27 in Calm     90% 0.00 in meteobridge W/m2
09:39 49.8 °F 46.4 °F 30.27 in Calm     88% 0.00 in meteobridge W/m2
09:44 50.7 °F 47.3 °F 30.27 in Calm   1.0 mph 88% 0.00 in meteobridge W/m2
09:49 51.6 °F 48.6 °F 30.27 in Calm     89% 0.00 in meteobridge W/m2
09:54 52.7 °F 47.1 °F 30.27 in Calm     81% 0.00 in meteobridge W/m2
09:59 53.6 °F 46.9 °F 30.26 in Calm     78% 0.00 in meteobridge W/m2
10:04 54.3 °F 47.3 °F 30.26 in Calm   1.0 mph 77% 0.00 in meteobridge W/m2
10:09 55.2 °F 47.1 °F 30.26 in Calm   1.0 mph 74% 0.00 in meteobridge W/m2
10:14 56.5 °F 46.4 °F 30.26 in Calm     69% 0.00 in meteobridge W/m2
10:19 57.6 °F 45.1 °F 30.26 in Calm     63% 0.00 in meteobridge W/m2
10:24 58.8 °F 42.3 °F 30.26 in Calm     54% 0.00 in meteobridge W/m2
10:29 59.7 °F 45.3 °F 30.26 in North 0.9 mph 1.0 mph 59% 0.00 in meteobridge W/m2
10:34 60.8 °F 43.0 °F 30.26 in Calm   1.0 mph 52% 0.00 in meteobridge W/m2
10:39 61.5 °F 43.2 °F 30.26 in NNW 0.9 mph 2.0 mph 51% 0.00 in meteobridge W/m2
10:44 62.8 °F 43.9 °F 30.26 in Calm     50% 0.00 in meteobridge W/m2
10:49 63.9 °F 43.2 °F 30.26 in Calm   2.0 mph 47% 0.00 in meteobridge W/m2
10:54 64.8 °F 42.3 °F 30.26 in Calm   1.0 mph 44% 0.00 in meteobridge W/m2
10:59 65.8 °F 42.8 °F 30.26 in Calm   1.0 mph 43% 0.00 in meteobridge W/m2
11:04 66.7 °F 42.3 °F 30.26 in Calm   1.0 mph 41% 0.00 in meteobridge W/m2
11:09 67.8 °F 41.4 °F 30.26 in ENE 0.9 mph 3.0 mph 38% 0.00 in meteobridge W/m2
11:14 68.5 °F 43.9 °F 30.26 in NE 0.9 mph 1.0 mph 41% 0.00 in meteobridge W/m2
11:19 69.1 °F 41.7 °F 30.26 in West 4.0 mph 5.0 mph 37% 0.00 in meteobridge W/m2
11:24 70.0 °F 40.3 °F 30.26 in Calm   1.0 mph 34% 0.00 in meteobridge W/m2
11:29 70.7 °F 36.9 °F 30.26 in Calm   4.0 mph 29% 0.00 in meteobridge W/m2
11:34 71.4 °F 39.2 °F 30.26 in Calm   1.0 mph 31% 0.00 in meteobridge W/m2
11:39 72.0 °F 36.1 °F 30.26 in SW 0.9 mph 6.0 mph 27% 0.00 in meteobridge W/m2
11:44 72.3 °F 35.6 °F 30.25 in NNW 4.0 mph 4.0 mph 26% 0.00 in meteobridge W/m2
11:49 72.9 °F 36.9 °F 30.25 in Calm   2.0 mph 27% 0.00 in meteobridge W/m2
11:54 73.0 °F 33.1 °F 30.25 in NNW 2.0 mph 5.0 mph 23% 0.00 in meteobridge W/m2
11:59 73.4 °F 33.3 °F 30.25 in NW 0.9 mph 2.0 mph 23% 0.00 in meteobridge W/m2
12:04 73.6 °F 36.5 °F 30.25 in Calm   1.0 mph 26% 0.00 in meteobridge W/m2
12:09 73.8 °F 34.7 °F 30.25 in Calm   4.0 mph 24% 0.00 in meteobridge W/m2
12:14 73.9 °F 34.9 °F 30.24 in Calm   2.0 mph 24% 0.00 in meteobridge W/m2
12:19 74.1 °F 37.0 °F 30.24 in Calm     26% 0.00 in meteobridge W/m2
12:24 74.7 °F 35.4 °F 30.24 in Calm   6.0 mph 24% 0.00 in meteobridge W/m2
12:29 74.8 °F 36.7 °F 30.24 in Calm   2.0 mph 25% 0.00 in meteobridge W/m2
12:34 74.8 °F 33.4 °F 30.24 in Calm   2.0 mph 22% 0.00 in meteobridge W/m2
12:39 75.0 °F 35.8 °F 30.24 in ENE 0.9 mph 6.0 mph 24% 0.00 in meteobridge W/m2
12:44 75.2 °F 34.9 °F 30.24 in Calm   2.0 mph 23% 0.00 in meteobridge W/m2
12:49 75.4 °F 37.0 °F 30.23 in Calm   2.0 mph 25% 0.00 in meteobridge W/m2
12:54 75.7 °F 38.5 °F 30.23 in NNE 2.9 mph 3.0 mph 26% 0.00 in meteobridge W/m2
12:59 76.1 °F 38.7 °F 30.23 in Calm   2.0 mph 26% 0.00 in meteobridge W/m2
13:04 76.5 °F 39.0 °F 30.22 in Calm   2.0 mph 26% 0.00 in meteobridge W/m2
13:09 76.6 °F 40.1 °F 30.22 in Calm     27% 0.00 in meteobridge W/m2
13:14 76.8 °F 40.3 °F 30.22 in Calm   3.0 mph 27% 0.00 in meteobridge W/m2
13:19 77.0 °F 40.5 °F 30.22 in Calm   4.0 mph 27% 0.00 in meteobridge W/m2
13:24 77.2 °F 40.6 °F 30.22 in Calm   2.0 mph 27% 0.00 in meteobridge W/m2
13:29 77.5 °F 41.0 °F 30.22 in Calm   4.0 mph 27% 0.00 in meteobridge W/m2
13:34 77.5 °F 41.9 °F 30.22 in Calm   4.0 mph 28% 0.00 in meteobridge W/m2
13:39 77.4 °F 39.7 °F 30.22 in Calm   1.0 mph 26% 0.00 in meteobridge W/m2
13:44 77.5 °F 43.7 °F 30.21 in North 2.0 mph 5.0 mph 30% 0.00 in meteobridge W/m2
13:49 77.7 °F 43.0 °F 30.21 in Calm   6.0 mph 29% 0.00 in meteobridge W/m2
13:54 77.5 °F 43.7 °F 30.21 in Calm   5.0 mph 30% 0.00 in meteobridge W/m2
13:59 77.7 °F 44.6 °F 30.20 in Calm     31% 0.00 in meteobridge W/m2
14:04 77.9 °F 44.8 °F 30.20 in Calm   1.0 mph 31% 0.00 in meteobridge W/m2
14:09 77.9 °F 44.8 °F 30.20 in Calm   4.0 mph 31% 0.00 in meteobridge W/m2
14:14 78.1 °F 45.0 °F 30.20 in NW 0.9 mph 5.0 mph 31% 0.00 in meteobridge W/m2
14:19 78.1 °F 44.1 °F 30.20 in NW 0.9 mph 3.0 mph 30% 0.00 in meteobridge W/m2
14:24 77.9 °F 44.1 °F 30.20 in ENE 2.9 mph 5.0 mph 30% 0.00 in meteobridge W/m2
14:29 78.1 °F 45.0 °F 30.19 in Calm   3.0 mph 31% 0.00 in meteobridge W/m2
14:34 77.7 °F 45.5 °F 30.19 in Calm   3.0 mph 32% 0.00 in meteobridge W/m2
14:39 77.7 °F 46.4 °F 30.19 in Calm   4.0 mph 33% 0.00 in meteobridge W/m2
14:44 77.7 °F 45.5 °F 30.19 in Calm   1.0 mph 32% 0.00 in meteobridge W/m2
14:49 77.7 °F 47.1 °F 30.19 in Calm   1.0 mph 34% 0.00 in meteobridge W/m2
14:54 77.9 °F 46.4 °F 30.19 in NE 0.9 mph 4.0 mph 33% 0.00 in meteobridge W/m2
14:59 78.1 °F 47.5 °F 30.18 in Calm   2.0 mph 34% 0.00 in meteobridge W/m2
15:04 77.9 °F 47.3 °F 30.18 in NNE 0.9 mph 1.0 mph 34% 0.00 in meteobridge W/m2
15:09 78.1 °F 47.5 °F 30.18 in Calm   5.0 mph 34% 0.00 in meteobridge W/m2
15:14 78.1 °F 45.9 °F 30.18 in NNW 2.9 mph 4.0 mph 32% 0.00 in meteobridge W/m2
15:19 78.3 °F 47.7 °F 30.18 in Calm     34% 0.00 in meteobridge W/m2
15:24 78.3 °F 46.8 °F 30.18 in Calm   4.0 mph 33% 0.00 in meteobridge W/m2
15:29 78.1 °F 48.9 °F 30.17 in Calm     36% 0.00 in meteobridge W/m2
15:34 78.1 °F 47.5 °F 30.17 in Calm     34% 0.00 in meteobridge W/m2
15:39 78.1 °F 46.6 °F 30.17 in Calm   1.0 mph 33% 0.00 in meteobridge W/m2
15:44 77.9 °F 47.3 °F 30.17 in Calm   2.0 mph 34% 0.00 in meteobridge W/m2
15:49 78.1 °F 46.6 °F 30.17 in Calm   5.0 mph 33% 0.00 in meteobridge W/m2
15:54 78.1 °F 46.6 °F 30.17 in Calm   2.0 mph 33% 0.00 in meteobridge W/m2
15:59 77.9 °F 47.3 °F 30.16 in Calm   2.0 mph 34% 0.00 in meteobridge W/m2
16:04 77.9 °F 44.8 °F 30.16 in WNW 2.9 mph 7.0 mph 31% 0.00 in meteobridge W/m2
16:09 77.7 °F 47.1 °F 30.16 in Calm   2.0 mph 34% 0.00 in meteobridge W/m2
16:14 77.7 °F 47.8 °F 30.16 in Calm   1.0 mph 35% 0.00 in meteobridge W/m2
16:19 77.5 °F 46.9 °F 30.16 in Calm     34% 0.00 in meteobridge W/m2
16:24 77.5 °F 48.6 °F 30.16 in Calm   1.0 mph 36% 0.00 in meteobridge W/m2
16:29 77.7 °F 46.4 °F 30.16 in NW 2.0 mph 6.0 mph 33% 0.00 in meteobridge W/m2
16:34 77.7 °F 47.1 °F 30.16 in Calm   4.0 mph 34% 0.00 in meteobridge W/m2
16:39 77.5 °F 46.9 °F 30.16 in Calm   2.0 mph 34% 0.00 in meteobridge W/m2
16:44 77.5 °F 47.7 °F 30.16 in Calm     35% 0.00 in meteobridge W/m2
16:49 77.7 °F 47.1 °F 30.16 in NE 2.0 mph 2.0 mph 34% 0.00 in meteobridge W/m2
16:54 77.7 °F 47.1 °F 30.16 in Calm     34% 0.00 in meteobridge W/m2
16:59 77.5 °F 45.3 °F 30.16 in Calm   2.0 mph 32% 0.00 in meteobridge W/m2
17:04 77.7 °F 46.4 °F 30.16 in West 0.9 mph 4.0 mph 33% 0.00 in meteobridge W/m2
17:09 77.5 °F 46.9 °F 30.16 in Calm   1.0 mph 34% 0.00 in meteobridge W/m2
17:14 77.5 °F 44.6 °F 30.16 in West 2.0 mph 6.0 mph 31% 0.00 in meteobridge W/m2
17:19 77.4 °F 46.0 °F 30.16 in NW 2.9 mph 3.0 mph 33% 0.00 in meteobridge W/m2
17:24 77.0 °F 47.3 °F 30.16 in Calm   2.0 mph 35% 0.00 in meteobridge W/m2
17:29 76.6 °F 45.3 °F 30.16 in Calm   4.0 mph 33% 0.00 in meteobridge W/m2
17:34 76.5 °F 44.4 °F 30.16 in Calm   2.0 mph 32% 0.00 in meteobridge W/m2
17:39 76.3 °F 46.6 °F 30.16 in Calm   1.0 mph 35% 0.00 in meteobridge W/m2
17:44 76.1 °F 47.1 °F 30.16 in Calm   1.0 mph 36% 0.00 in meteobridge W/m2
17:49 75.9 °F 47.1 °F 30.16 in Calm   2.0 mph 36% 0.00 in meteobridge W/m2
17:54 75.9 °F 47.8 °F 30.16 in Calm   4.0 mph 37% 0.00 in meteobridge W/m2
17:59 75.7 °F 47.7 °F 30.16 in Calm   1.0 mph 37% 0.00 in meteobridge W/m2
18:04 75.6 °F 48.2 °F 30.16 in Calm     38% 0.00 in meteobridge W/m2
18:09 75.4 °F 48.0 °F 30.16 in Calm     38% 0.00 in meteobridge W/m2
18:14 75.2 °F 46.4 °F 30.16 in Calm   3.0 mph 36% 0.00 in meteobridge W/m2
18:19 75.0 °F 47.7 °F 30.16 in Calm   1.0 mph 38% 0.00 in meteobridge W/m2
18:24 74.8 °F 48.2 °F 30.16 in East 0.9 mph 2.0 mph 39% 0.00 in meteobridge W/m2
18:29 74.7 °F 49.5 °F 30.16 in ENE 0.9 mph 4.0 mph 41% 0.00 in meteobridge W/m2
18:34 74.7 °F 46.6 °F 30.16 in Calm   3.0 mph 37% 0.00 in meteobridge W/m2
18:39 74.5 °F 48.6 °F 30.16 in Calm     40% 0.00 in meteobridge W/m2
18:44 74.1 °F 48.2 °F 30.16 in Calm   1.0 mph 40% 0.00 in meteobridge W/m2
18:49 73.8 °F 49.8 °F 30.16 in Calm   1.0 mph 43% 0.00 in meteobridge W/m2
18:54 73.2 °F 51.3 °F 30.16 in Calm     46% 0.00 in meteobridge W/m2
18:59 73.0 °F 51.6 °F 30.15 in Calm     47% 0.00 in meteobridge W/m2
19:04 72.7 °F 49.5 °F 30.16 in Calm     44% 0.00 in meteobridge W/m2
19:09 72.3 °F 49.8 °F 30.15 in Calm     45% 0.00 in meteobridge W/m2
19:14 72.1 °F 50.2 °F 30.16 in Calm     46% 0.00 in meteobridge W/m2
19:19 71.8 °F 49.8 °F 30.15 in Calm     46% 0.00 in meteobridge W/m2
19:24 71.2 °F 50.0 °F 30.16 in Calm     47% 0.00 in meteobridge W/m2
19:29 70.9 °F 50.2 °F 30.15 in Calm     48% 0.00 in meteobridge W/m2
19:34 70.3 °F 50.4 °F 30.15 in Calm   1.0 mph 49% 0.00 in meteobridge W/m2
19:39 70.2 °F 48.9 °F 30.15 in Calm   1.0 mph 47% 0.00 in meteobridge W/m2
19:44 69.6 °F 50.7 °F 30.15 in Calm     51% 0.00 in meteobridge W/m2
19:49 69.4 °F 50.0 °F 30.16 in Calm     50% 0.00 in meteobridge W/m2
19:54 68.9 °F 51.1 °F 30.16 in Calm     53% 0.00 in meteobridge W/m2
19:59 68.5 °F 51.3 °F 30.16 in Calm     54% 0.00 in meteobridge W/m2
20:04 67.8 °F 50.0 °F 30.16 in Calm     53% 0.00 in meteobridge W/m2
20:09 67.5 °F 50.2 °F 30.16 in Calm     54% 0.00 in meteobridge W/m2
20:14 67.1 °F 49.8 °F 30.16 in Calm     54% 0.00 in meteobridge W/m2
20:19 66.7 °F 49.1 °F 30.16 in Calm     53% 0.00 in meteobridge W/m2
20:24 66.4 °F 49.3 °F 30.16 in Calm     54% 0.00 in meteobridge W/m2
20:29 65.8 °F 48.7 °F 30.16 in Calm     54% 0.00 in meteobridge W/m2
20:34 65.5 °F 49.3 °F 30.16 in Calm     56% 0.00 in meteobridge W/m2
20:39 64.9 °F 49.8 °F 30.16 in Calm     58% 0.00 in meteobridge W/m2
20:44 64.6 °F 50.9 °F 30.16 in Calm     61% 0.00 in meteobridge W/m2
20:49 64.0 °F 49.8 °F 30.16 in Calm     60% 0.00 in meteobridge W/m2
20:54 63.5 °F 49.3 °F 30.16 in Calm     60% 0.00 in meteobridge W/m2
20:59 63.1 °F 49.8 °F 30.16 in Calm     62% 0.00 in meteobridge W/m2
21:04 63.0 °F 49.8 °F 30.16 in Calm     62% 0.00 in meteobridge W/m2
21:09 62.2 °F 49.1 °F 30.17 in Calm     62% 0.00 in meteobridge W/m2
21:14 61.9 °F 48.7 °F 30.17 in Calm     62% 0.00 in meteobridge W/m2
21:19 61.3 °F 49.1 °F 30.17 in Calm     64% 0.00 in meteobridge W/m2
21:24 61.0 °F 49.1 °F 30.17 in Calm     65% 0.00 in meteobridge W/m2
21:29 60.4 °F 49.1 °F 30.17 in Calm     66% 0.00 in meteobridge W/m2
21:34 60.1 °F 49.5 °F 30.17 in Calm     68% 0.00 in meteobridge W/m2
21:39 59.5 °F 49.3 °F 30.17 in Calm     69% 0.00 in meteobridge W/m2
21:44 59.4 °F 49.1 °F 30.17 in Calm     69% 0.00 in meteobridge W/m2
21:49 59.2 °F 49.5 °F 30.17 in Calm     70% 0.00 in meteobridge W/m2
21:54 58.8 °F 49.5 °F 30.17 in Calm     71% 0.00 in meteobridge W/m2
21:59 58.5 °F 49.5 °F 30.17 in Calm     72% 0.00 in meteobridge W/m2
22:04 58.1 °F 49.5 °F 30.17 in Calm     73% 0.00 in meteobridge W/m2
22:09 57.7 °F 49.5 °F 30.17 in Calm     74% 0.00 in meteobridge W/m2
22:14 57.6 °F 49.6 °F 30.17 in Calm     75% 0.00 in meteobridge W/m2
22:19 57.4 °F 49.8 °F 30.18 in Calm     76% 0.00 in meteobridge W/m2
22:24 57.0 °F 49.5 °F 30.18 in Calm     76% 0.00 in meteobridge W/m2
22:29 56.7 °F 49.5 °F 30.18 in Calm     77% 0.00 in meteobridge W/m2
22:34 56.5 °F 49.3 °F 30.18 in Calm     77% 0.00 in meteobridge W/m2
22:39 56.1 °F 49.3 °F 30.18 in Calm     78% 0.00 in meteobridge W/m2
22:44 55.9 °F 49.5 °F 30.18 in Calm     79% 0.00 in meteobridge W/m2
22:49 55.8 °F 49.3 °F 30.18 in Calm     79% 0.00 in meteobridge W/m2
22:54 55.6 °F 49.1 °F 30.18 in Calm     79% 0.00 in meteobridge W/m2
22:59 55.2 °F 49.1 °F 30.19 in Calm     80% 0.00 in meteobridge W/m2
23:04 55.0 °F 48.9 °F 30.19 in Calm     80% 0.00 in meteobridge W/m2
23:09 54.9 °F 49.1 °F 30.19 in Calm     81% 0.00 in meteobridge W/m2
23:14 54.7 °F 49.3 °F 30.19 in Calm     82% 0.00 in meteobridge W/m2
23:19 54.3 °F 48.9 °F 30.19 in Calm     82% 0.00 in meteobridge W/m2
23:24 54.1 °F 48.7 °F 30.19 in Calm     82% 0.00 in meteobridge W/m2
23:29 54.0 °F 48.9 °F 30.19 in Calm     83% 0.00 in meteobridge W/m2
23:34 53.8 °F 48.7 °F 30.19 in Calm     83% 0.00 in meteobridge W/m2
23:39 53.4 °F 48.7 °F 30.19 in Calm     84% 0.00 in meteobridge W/m2
23:44 53.2 °F 48.6 °F 30.19 in Calm     84% 0.00 in meteobridge W/m2
23:49 53.2 °F 48.9 °F 30.19 in Calm     85% 0.00 in meteobridge W/m2
23:54 53.1 °F 48.7 °F 30.20 in Calm     85% 0.00 in meteobridge W/m2
23:59 52.9 °F 48.6 °F 30.20 in Calm     85% 0.00 in meteobridge W/m2
EllijayWeather
Compliments of Weather Underground - 2.5 mb